﻿<?xml version="1.0" encoding="UTF-8" standalone="no" ?>
<gpx xmlns="http://www.topografix.com/GPX/1/1" creator="CompeGPS" version="1.1" xmlns:xsi="http://www.w3.org/2001/XMLSchema-instance" xsi:schemaLocation="http://www.topografix.com/GPX/1/1 http://www.topografix.com/GPX/1/1/gpx.xsd http://www.garmin.com/xmlschemas/GpxExtensions/v3 http://www.garmin.com/xmlschemas/GpxExtensionsv3.xsd http://www.garmin.com/xmlschemas/TrackPointExtension/v1 http://www.garmin.com/xmlschemas/TrackPointExtensionv1.xsd" xmlns:gpxtpx="http://www.garmin.com/xmlschemas/TrackPointExtension/v1">
  <trk>
    <name>PR-CC 65</name>
    <desc>PR-CC 65</desc>
    <trkseg>
      <trkpt lat="39.815142" lon="-6.327532">
        <ele>447.9</ele>
        <time>2019-05-15T06:45:44Z</time>
      </trkpt>
      <trkpt lat="39.815076" lon="-6.327527">
        <ele>448.0</ele>
        <time>2019-05-15T06:45:50Z</time>
      </trkpt>
      <trkpt lat="39.815038" lon="-6.327516">
        <ele>448.0</ele>
        <time>2019-05-15T06:45:54Z</time>
      </trkpt>
      <trkpt lat="39.814716" lon="-6.327356">
        <ele>447.0</ele>
        <time>2019-05-15T06:46:28Z</time>
      </trkpt>
      <trkpt lat="39.814078" lon="-6.326918">
        <ele>445.0</ele>
        <time>2019-05-15T06:47:40Z</time>
      </trkpt>
      <trkpt lat="39.813517" lon="-6.326539">
        <ele>441.0</ele>
        <time>2019-05-15T06:48:42Z</time>
      </trkpt>
      <trkpt lat="39.813175" lon="-6.326349">
        <ele>438.0</ele>
        <time>2019-05-15T06:49:19Z</time>
      </trkpt>
      <trkpt lat="39.812674" lon="-6.326066">
        <ele>434.8</ele>
        <time>2019-05-15T06:50:14Z</time>
      </trkpt>
      <trkpt lat="39.812278" lon="-6.325885">
        <ele>432.0</ele>
        <time>2019-05-15T06:50:55Z</time>
      </trkpt>
      <trkpt lat="39.812186" lon="-6.325734">
        <ele>431.0</ele>
        <time>2019-05-15T06:51:10Z</time>
      </trkpt>
      <trkpt lat="39.812183" lon="-6.325537">
        <ele>429.8</ele>
        <time>2019-05-15T06:51:25Z</time>
      </trkpt>
      <trkpt lat="39.812101" lon="-6.325420">
        <ele>428.2</ele>
        <time>2019-05-15T06:51:37Z</time>
      </trkpt>
      <trkpt lat="39.812180" lon="-6.325250">
        <ele>429.0</ele>
        <time>2019-05-15T06:51:52Z</time>
      </trkpt>
      <trkpt lat="39.812314" lon="-6.324931">
        <ele>429.1</ele>
        <time>2019-05-15T06:52:20Z</time>
      </trkpt>
      <trkpt lat="39.812733" lon="-6.324072">
        <ele>430.7</ele>
        <time>2019-05-15T06:53:38Z</time>
      </trkpt>
      <trkpt lat="39.812902" lon="-6.323511">
        <ele>431.7</ele>
        <time>2019-05-15T06:54:24Z</time>
      </trkpt>
      <trkpt lat="39.812984" lon="-6.323195">
        <ele>431.3</ele>
        <time>2019-05-15T06:54:49Z</time>
      </trkpt>
      <trkpt lat="39.813030" lon="-6.322904">
        <ele>430.8</ele>
        <time>2019-05-15T06:55:12Z</time>
      </trkpt>
      <trkpt lat="39.812759" lon="-6.322363">
        <ele>428.8</ele>
        <time>2019-05-15T06:56:01Z</time>
      </trkpt>
      <trkpt lat="39.812184" lon="-6.321507">
        <ele>427.0</ele>
        <time>2019-05-15T06:57:28Z</time>
      </trkpt>
      <trkpt lat="39.811695" lon="-6.320921">
        <ele>425.7</ele>
        <time>2019-05-15T06:58:33Z</time>
      </trkpt>
      <trkpt lat="39.811164" lon="-6.320499">
        <ele>427.0</ele>
        <time>2019-05-15T06:59:35Z</time>
      </trkpt>
      <trkpt lat="39.810772" lon="-6.320278">
        <ele>427.0</ele>
        <time>2019-05-15T07:00:18Z</time>
      </trkpt>
      <trkpt lat="39.810477" lon="-6.320048">
        <ele>425.4</ele>
        <time>2019-05-15T07:00:52Z</time>
      </trkpt>
      <trkpt lat="39.810354" lon="-6.319872">
        <ele>423.5</ele>
        <time>2019-05-15T07:01:10Z</time>
      </trkpt>
      <trkpt lat="39.810295" lon="-6.319590">
        <ele>421.5</ele>
        <time>2019-05-15T07:01:32Z</time>
      </trkpt>
      <trkpt lat="39.810230" lon="-6.319105">
        <ele>419.0</ele>
        <time>2019-05-15T07:02:10Z</time>
      </trkpt>
      <trkpt lat="39.810235" lon="-6.319074">
        <ele>419.0</ele>
        <time>2019-05-15T07:02:12Z</time>
      </trkpt>
      <trkpt lat="39.810188" lon="-6.318689">
        <ele>416.5</ele>
        <time>2019-05-15T07:02:42Z</time>
      </trkpt>
      <trkpt lat="39.810170" lon="-6.318459">
        <ele>416.0</ele>
        <time>2019-05-15T07:03:00Z</time>
      </trkpt>
      <trkpt lat="39.810089" lon="-6.318105">
        <ele>417.0</ele>
        <time>2019-05-15T07:03:28Z</time>
      </trkpt>
      <trkpt lat="39.810048" lon="-6.317939">
        <ele>417.0</ele>
        <time>2019-05-15T07:03:41Z</time>
      </trkpt>
      <trkpt lat="39.809970" lon="-6.317530">
        <ele>418.0</ele>
        <time>2019-05-15T07:04:13Z</time>
      </trkpt>
      <trkpt lat="39.809879" lon="-6.317160">
        <ele>420.3</ele>
        <time>2019-05-15T07:04:43Z</time>
      </trkpt>
      <trkpt lat="39.809746" lon="-6.316470">
        <ele>423.0</ele>
        <time>2019-05-15T07:05:37Z</time>
      </trkpt>
      <trkpt lat="39.809602" lon="-6.315617">
        <ele>426.0</ele>
        <time>2019-05-15T07:06:44Z</time>
      </trkpt>
      <trkpt lat="39.809585" lon="-6.315213">
        <ele>427.0</ele>
        <time>2019-05-15T07:07:15Z</time>
      </trkpt>
      <trkpt lat="39.809561" lon="-6.314921">
        <ele>426.0</ele>
        <time>2019-05-15T07:07:37Z</time>
      </trkpt>
      <trkpt lat="39.809512" lon="-6.314561">
        <ele>426.0</ele>
        <time>2019-05-15T07:08:05Z</time>
      </trkpt>
      <trkpt lat="39.809431" lon="-6.314262">
        <ele>425.0</ele>
        <time>2019-05-15T07:08:29Z</time>
      </trkpt>
      <trkpt lat="39.809355" lon="-6.313983">
        <ele>424.2</ele>
        <time>2019-05-15T07:08:51Z</time>
      </trkpt>
      <trkpt lat="39.809188" lon="-6.313574">
        <ele>423.0</ele>
        <time>2019-05-15T07:09:27Z</time>
      </trkpt>
      <trkpt lat="39.809087" lon="-6.313316">
        <ele>422.5</ele>
        <time>2019-05-15T07:09:49Z</time>
      </trkpt>
      <trkpt lat="39.808886" lon="-6.312855">
        <ele>422.0</ele>
        <time>2019-05-15T07:10:29Z</time>
      </trkpt>
      <trkpt lat="39.808780" lon="-6.312580">
        <ele>421.0</ele>
        <time>2019-05-15T07:10:53Z</time>
      </trkpt>
      <trkpt lat="39.808682" lon="-6.312475">
        <ele>420.0</ele>
        <time>2019-05-15T07:11:05Z</time>
      </trkpt>
      <trkpt lat="39.808469" lon="-6.312369">
        <ele>419.0</ele>
        <time>2019-05-15T07:11:28Z</time>
      </trkpt>
      <trkpt lat="39.808291" lon="-6.312179">
        <ele>419.0</ele>
        <time>2019-05-15T07:11:51Z</time>
      </trkpt>
      <trkpt lat="39.808119" lon="-6.311806">
        <ele>419.0</ele>
        <time>2019-05-15T07:12:24Z</time>
      </trkpt>
      <trkpt lat="39.807962" lon="-6.311384">
        <ele>420.0</ele>
        <time>2019-05-15T07:13:00Z</time>
      </trkpt>
      <trkpt lat="39.807752" lon="-6.310918">
        <ele>421.0</ele>
        <time>2019-05-15T07:13:41Z</time>
      </trkpt>
      <trkpt lat="39.807623" lon="-6.310436">
        <ele>421.0</ele>
        <time>2019-05-15T07:14:20Z</time>
      </trkpt>
      <trkpt lat="39.807558" lon="-6.310096">
        <ele>421.0</ele>
        <time>2019-05-15T07:14:46Z</time>
      </trkpt>
      <trkpt lat="39.807446" lon="-6.309796">
        <ele>419.8</ele>
        <time>2019-05-15T07:15:12Z</time>
      </trkpt>
      <trkpt lat="39.807369" lon="-6.309622">
        <ele>418.7</ele>
        <time>2019-05-15T07:15:27Z</time>
      </trkpt>
      <trkpt lat="39.807206" lon="-6.309378">
        <ele>416.0</ele>
        <time>2019-05-15T07:15:52Z</time>
      </trkpt>
      <trkpt lat="39.807140" lon="-6.309260">
        <ele>415.2</ele>
        <time>2019-05-15T07:16:03Z</time>
      </trkpt>
      <trkpt lat="39.806790" lon="-6.308864">
        <ele>413.0</ele>
        <time>2019-05-15T07:16:49Z</time>
      </trkpt>
      <trkpt lat="39.806538" lon="-6.308558">
        <ele>412.0</ele>
        <time>2019-05-15T07:17:23Z</time>
      </trkpt>
      <trkpt lat="39.806350" lon="-6.308330">
        <ele>411.0</ele>
        <time>2019-05-15T07:17:49Z</time>
      </trkpt>
      <trkpt lat="39.806187" lon="-6.308140">
        <ele>411.0</ele>
        <time>2019-05-15T07:18:10Z</time>
      </trkpt>
      <trkpt lat="39.806044" lon="-6.307929">
        <ele>412.0</ele>
        <time>2019-05-15T07:18:32Z</time>
      </trkpt>
      <trkpt lat="39.805900" lon="-6.307603">
        <ele>413.6</ele>
        <time>2019-05-15T07:19:01Z</time>
      </trkpt>
      <trkpt lat="39.805750" lon="-6.307288">
        <ele>415.0</ele>
        <time>2019-05-15T07:19:29Z</time>
      </trkpt>
      <trkpt lat="39.805536" lon="-6.306995">
        <ele>416.0</ele>
        <time>2019-05-15T07:20:00Z</time>
      </trkpt>
      <trkpt lat="39.805440" lon="-6.306856">
        <ele>415.8</ele>
        <time>2019-05-15T07:20:14Z</time>
      </trkpt>
      <trkpt lat="39.805163" lon="-6.306539">
        <ele>415.0</ele>
        <time>2019-05-15T07:20:51Z</time>
      </trkpt>
      <trkpt lat="39.805030" lon="-6.306360">
        <ele>414.0</ele>
        <time>2019-05-15T07:21:10Z</time>
      </trkpt>
      <trkpt lat="39.804880" lon="-6.306197">
        <ele>413.0</ele>
        <time>2019-05-15T07:21:29Z</time>
      </trkpt>
      <trkpt lat="39.804722" lon="-6.306007">
        <ele>411.0</ele>
        <time>2019-05-15T07:21:50Z</time>
      </trkpt>
      <trkpt lat="39.804560" lon="-6.305800">
        <ele>409.0</ele>
        <time>2019-05-15T07:22:13Z</time>
      </trkpt>
      <trkpt lat="39.804150" lon="-6.305350">
        <ele>404.7</ele>
        <time>2019-05-15T07:23:06Z</time>
      </trkpt>
      <trkpt lat="39.803953" lon="-6.305109">
        <ele>402.3</ele>
        <time>2019-05-15T07:23:33Z</time>
      </trkpt>
      <trkpt lat="39.803780" lon="-6.304910">
        <ele>400.2</ele>
        <time>2019-05-15T07:23:56Z</time>
      </trkpt>
      <trkpt lat="39.803600" lon="-6.304680">
        <ele>398.1</ele>
        <time>2019-05-15T07:24:21Z</time>
      </trkpt>
      <trkpt lat="39.803540" lon="-6.304610">
        <ele>397.9</ele>
        <time>2019-05-15T07:24:29Z</time>
      </trkpt>
      <trkpt lat="39.803430" lon="-6.304460">
        <ele>397.0</ele>
        <time>2019-05-15T07:24:45Z</time>
      </trkpt>
      <trkpt lat="39.803155" lon="-6.304090">
        <ele>398.0</ele>
        <time>2019-05-15T07:25:24Z</time>
      </trkpt>
      <trkpt lat="39.803056" lon="-6.303985">
        <ele>399.0</ele>
        <time>2019-05-15T07:25:37Z</time>
      </trkpt>
      <trkpt lat="39.802932" lon="-6.303961">
        <ele>400.0</ele>
        <time>2019-05-15T07:25:49Z</time>
      </trkpt>
      <trkpt lat="39.802844" lon="-6.303959">
        <ele>399.2</ele>
        <time>2019-05-15T07:25:58Z</time>
      </trkpt>
      <trkpt lat="39.802609" lon="-6.303942">
        <ele>398.2</ele>
        <time>2019-05-15T07:26:22Z</time>
      </trkpt>
      <trkpt lat="39.802466" lon="-6.303895">
        <ele>396.9</ele>
        <time>2019-05-15T07:26:36Z</time>
      </trkpt>
      <trkpt lat="39.802391" lon="-6.303854">
        <ele>396.4</ele>
        <time>2019-05-15T07:26:44Z</time>
      </trkpt>
      <trkpt lat="39.802156" lon="-6.303740">
        <ele>394.3</ele>
        <time>2019-05-15T07:27:09Z</time>
      </trkpt>
      <trkpt lat="39.801934" lon="-6.303574">
        <ele>392.7</ele>
        <time>2019-05-15T07:27:35Z</time>
      </trkpt>
      <trkpt lat="39.801792" lon="-6.303464">
        <ele>391.0</ele>
        <time>2019-05-15T07:27:51Z</time>
      </trkpt>
      <trkpt lat="39.801648" lon="-6.303305">
        <ele>389.5</ele>
        <time>2019-05-15T07:28:10Z</time>
      </trkpt>
      <trkpt lat="39.801495" lon="-6.303089">
        <ele>386.8</ele>
        <time>2019-05-15T07:28:32Z</time>
      </trkpt>
      <trkpt lat="39.801306" lon="-6.302647">
        <ele>382.7</ele>
        <time>2019-05-15T07:29:11Z</time>
      </trkpt>
      <trkpt lat="39.801244" lon="-6.302324">
        <ele>380.5</ele>
        <time>2019-05-15T07:29:37Z</time>
      </trkpt>
      <trkpt lat="39.801220" lon="-6.302120">
        <ele>379.9</ele>
        <time>2019-05-15T07:29:52Z</time>
      </trkpt>
      <trkpt lat="39.801131" lon="-6.301910">
        <ele>379.5</ele>
        <time>2019-05-15T07:30:11Z</time>
      </trkpt>
      <trkpt lat="39.801052" lon="-6.301763">
        <ele>379.0</ele>
        <time>2019-05-15T07:30:24Z</time>
      </trkpt>
      <trkpt lat="39.800866" lon="-6.301538">
        <ele>379.0</ele>
        <time>2019-05-15T07:30:49Z</time>
      </trkpt>
      <trkpt lat="39.800712" lon="-6.301309">
        <ele>378.3</ele>
        <time>2019-05-15T07:31:13Z</time>
      </trkpt>
      <trkpt lat="39.800602" lon="-6.300980">
        <ele>378.0</ele>
        <time>2019-05-15T07:31:40Z</time>
      </trkpt>
      <trkpt lat="39.800530" lon="-6.300639">
        <ele>378.0</ele>
        <time>2019-05-15T07:32:07Z</time>
      </trkpt>
      <trkpt lat="39.800327" lon="-6.300306">
        <ele>377.6</ele>
        <time>2019-05-15T07:32:39Z</time>
      </trkpt>
      <trkpt lat="39.800068" lon="-6.299916">
        <ele>378.0</ele>
        <time>2019-05-15T07:33:19Z</time>
      </trkpt>
      <trkpt lat="39.799908" lon="-6.299653">
        <ele>378.0</ele>
        <time>2019-05-15T07:33:44Z</time>
      </trkpt>
      <trkpt lat="39.799752" lon="-6.299417">
        <ele>377.0</ele>
        <time>2019-05-15T07:34:08Z</time>
      </trkpt>
      <trkpt lat="39.799611" lon="-6.299195">
        <ele>375.0</ele>
        <time>2019-05-15T07:34:30Z</time>
      </trkpt>
      <trkpt lat="39.799553" lon="-6.299089">
        <ele>374.0</ele>
        <time>2019-05-15T07:34:40Z</time>
      </trkpt>
      <trkpt lat="39.799354" lon="-6.298781">
        <ele>371.7</ele>
        <time>2019-05-15T07:35:11Z</time>
      </trkpt>
      <trkpt lat="39.799210" lon="-6.298550">
        <ele>371.0</ele>
        <time>2019-05-15T07:35:33Z</time>
      </trkpt>
      <trkpt lat="39.799081" lon="-6.298439">
        <ele>370.4</ele>
        <time>2019-05-15T07:35:49Z</time>
      </trkpt>
      <trkpt lat="39.798882" lon="-6.298344">
        <ele>369.5</ele>
        <time>2019-05-15T07:36:10Z</time>
      </trkpt>
      <trkpt lat="39.798689" lon="-6.298279">
        <ele>368.0</ele>
        <time>2019-05-15T07:36:29Z</time>
      </trkpt>
      <trkpt lat="39.798569" lon="-6.298138">
        <ele>366.1</ele>
        <time>2019-05-15T07:36:46Z</time>
      </trkpt>
      <trkpt lat="39.798473" lon="-6.297788">
        <ele>362.5</ele>
        <time>2019-05-15T07:37:14Z</time>
      </trkpt>
      <trkpt lat="39.798406" lon="-6.297412">
        <ele>359.4</ele>
        <time>2019-05-15T07:37:44Z</time>
      </trkpt>
      <trkpt lat="39.798374" lon="-6.297115">
        <ele>358.0</ele>
        <time>2019-05-15T07:38:07Z</time>
      </trkpt>
      <trkpt lat="39.798353" lon="-6.296801">
        <ele>356.2</ele>
        <time>2019-05-15T07:38:31Z</time>
      </trkpt>
      <trkpt lat="39.798360" lon="-6.296417">
        <ele>354.9</ele>
        <time>2019-05-15T07:39:00Z</time>
      </trkpt>
      <trkpt lat="39.798320" lon="-6.296057">
        <ele>354.0</ele>
        <time>2019-05-15T07:39:28Z</time>
      </trkpt>
      <trkpt lat="39.798228" lon="-6.295675">
        <ele>352.2</ele>
        <time>2019-05-15T07:39:58Z</time>
      </trkpt>
      <trkpt lat="39.798112" lon="-6.295347">
        <ele>351.4</ele>
        <time>2019-05-15T07:40:26Z</time>
      </trkpt>
      <trkpt lat="39.798034" lon="-6.295158">
        <ele>350.8</ele>
        <time>2019-05-15T07:40:42Z</time>
      </trkpt>
      <trkpt lat="39.797957" lon="-6.294963">
        <ele>349.5</ele>
        <time>2019-05-15T07:40:59Z</time>
      </trkpt>
      <trkpt lat="39.797900" lon="-6.294834">
        <ele>348.5</ele>
        <time>2019-05-15T07:41:10Z</time>
      </trkpt>
      <trkpt lat="39.797833" lon="-6.294758">
        <ele>348.0</ele>
        <time>2019-05-15T07:41:19Z</time>
      </trkpt>
      <trkpt lat="39.797744" lon="-6.294717">
        <ele>347.6</ele>
        <time>2019-05-15T07:41:28Z</time>
      </trkpt>
      <trkpt lat="39.797571" lon="-6.294519">
        <ele>347.1</ele>
        <time>2019-05-15T07:41:51Z</time>
      </trkpt>
      <trkpt lat="39.797513" lon="-6.294370">
        <ele>346.8</ele>
        <time>2019-05-15T07:42:04Z</time>
      </trkpt>
      <trkpt lat="39.797423" lon="-6.294114">
        <ele>344.0</ele>
        <time>2019-05-15T07:42:26Z</time>
      </trkpt>
      <trkpt lat="39.797380" lon="-6.293950">
        <ele>342.5</ele>
        <time>2019-05-15T07:42:39Z</time>
      </trkpt>
      <trkpt lat="39.797256" lon="-6.293749">
        <ele>340.3</ele>
        <time>2019-05-15T07:42:59Z</time>
      </trkpt>
      <trkpt lat="39.797198" lon="-6.293614">
        <ele>339.0</ele>
        <time>2019-05-15T07:43:10Z</time>
      </trkpt>
      <trkpt lat="39.796940" lon="-6.293367">
        <ele>335.9</ele>
        <time>2019-05-15T07:43:42Z</time>
      </trkpt>
      <trkpt lat="39.796727" lon="-6.293226">
        <ele>334.2</ele>
        <time>2019-05-15T07:44:06Z</time>
      </trkpt>
      <trkpt lat="39.796556" lon="-6.293151">
        <ele>332.2</ele>
        <time>2019-05-15T07:44:24Z</time>
      </trkpt>
      <trkpt lat="39.796419" lon="-6.293102">
        <ele>331.0</ele>
        <time>2019-05-15T07:44:38Z</time>
      </trkpt>
      <trkpt lat="39.796283" lon="-6.293016">
        <ele>330.0</ele>
        <time>2019-05-15T07:44:53Z</time>
      </trkpt>
      <trkpt lat="39.796200" lon="-6.292890">
        <ele>330.0</ele>
        <time>2019-05-15T07:45:06Z</time>
      </trkpt>
      <trkpt lat="39.796068" lon="-6.292706">
        <ele>329.0</ele>
        <time>2019-05-15T07:45:25Z</time>
      </trkpt>
      <trkpt lat="39.796037" lon="-6.292601">
        <ele>328.8</ele>
        <time>2019-05-15T07:45:34Z</time>
      </trkpt>
      <trkpt lat="39.796032" lon="-6.292497">
        <ele>328.0</ele>
        <time>2019-05-15T07:45:42Z</time>
      </trkpt>
      <trkpt lat="39.796053" lon="-6.291367">
        <ele>325.5</ele>
        <time>2019-05-15T07:47:08Z</time>
      </trkpt>
      <trkpt lat="39.796110" lon="-6.290614">
        <ele>328.5</ele>
        <time>2019-05-15T07:48:05Z</time>
      </trkpt>
      <trkpt lat="39.796070" lon="-6.290306">
        <ele>327.0</ele>
        <time>2019-05-15T07:48:29Z</time>
      </trkpt>
      <trkpt lat="39.796020" lon="-6.289986">
        <ele>322.9</ele>
        <time>2019-05-15T07:48:54Z</time>
      </trkpt>
      <trkpt lat="39.795952" lon="-6.289626">
        <ele>319.2</ele>
        <time>2019-05-15T07:49:23Z</time>
      </trkpt>
      <trkpt lat="39.795871" lon="-6.289356">
        <ele>315.8</ele>
        <time>2019-05-15T07:49:45Z</time>
      </trkpt>
      <trkpt lat="39.795771" lon="-6.288996">
        <ele>311.9</ele>
        <time>2019-05-15T07:50:15Z</time>
      </trkpt>
      <trkpt lat="39.795702" lon="-6.288716">
        <ele>309.4</ele>
        <time>2019-05-15T07:50:37Z</time>
      </trkpt>
      <trkpt lat="39.795622" lon="-6.288348">
        <ele>305.7</ele>
        <time>2019-05-15T07:51:06Z</time>
      </trkpt>
      <trkpt lat="39.795562" lon="-6.288067">
        <ele>303.0</ele>
        <time>2019-05-15T07:51:29Z</time>
      </trkpt>
      <trkpt lat="39.795472" lon="-6.287707">
        <ele>301.4</ele>
        <time>2019-05-15T07:51:58Z</time>
      </trkpt>
      <trkpt lat="39.795312" lon="-6.287267">
        <ele>297.7</ele>
        <time>2019-05-15T07:52:35Z</time>
      </trkpt>
      <trkpt lat="39.795172" lon="-6.286719">
        <ele>295.2</ele>
        <time>2019-05-15T07:53:19Z</time>
      </trkpt>
      <trkpt lat="39.795067" lon="-6.286224">
        <ele>292.4</ele>
        <time>2019-05-15T07:53:58Z</time>
      </trkpt>
      <trkpt lat="39.795016" lon="-6.285799">
        <ele>290.5</ele>
        <time>2019-05-15T07:54:31Z</time>
      </trkpt>
      <trkpt lat="39.795016" lon="-6.285444">
        <ele>290.0</ele>
        <time>2019-05-15T07:54:58Z</time>
      </trkpt>
      <trkpt lat="39.795000" lon="-6.285320">
        <ele>289.4</ele>
        <time>2019-05-15T07:55:08Z</time>
      </trkpt>
      <trkpt lat="39.794986" lon="-6.285176">
        <ele>289.9</ele>
        <time>2019-05-15T07:55:19Z</time>
      </trkpt>
      <trkpt lat="39.794978" lon="-6.284977">
        <ele>289.6</ele>
        <time>2019-05-15T07:55:34Z</time>
      </trkpt>
      <trkpt lat="39.794975" lon="-6.284900">
        <ele>288.9</ele>
        <time>2019-05-15T07:55:40Z</time>
      </trkpt>
      <trkpt lat="39.795020" lon="-6.284800">
        <ele>288.2</ele>
        <time>2019-05-15T07:55:49Z</time>
      </trkpt>
      <trkpt lat="39.795034" lon="-6.284680">
        <ele>286.2</ele>
        <time>2019-05-15T07:55:58Z</time>
      </trkpt>
      <trkpt lat="39.795025" lon="-6.284598">
        <ele>284.6</ele>
        <time>2019-05-15T07:56:05Z</time>
      </trkpt>
      <trkpt lat="39.794995" lon="-6.284536">
        <ele>284.0</ele>
        <time>2019-05-15T07:56:10Z</time>
      </trkpt>
      <trkpt lat="39.794957" lon="-6.284488">
        <ele>284.4</ele>
        <time>2019-05-15T07:56:15Z</time>
      </trkpt>
      <trkpt lat="39.794914" lon="-6.284475">
        <ele>285.3</ele>
        <time>2019-05-15T07:56:20Z</time>
      </trkpt>
      <trkpt lat="39.794827" lon="-6.284505">
        <ele>286.1</ele>
        <time>2019-05-15T07:56:29Z</time>
      </trkpt>
      <trkpt lat="39.794741" lon="-6.284563">
        <ele>286.4</ele>
        <time>2019-05-15T07:56:38Z</time>
      </trkpt>
      <trkpt lat="39.794629" lon="-6.284591">
        <ele>288.2</ele>
        <time>2019-05-15T07:56:50Z</time>
      </trkpt>
      <trkpt lat="39.794563" lon="-6.284559">
        <ele>289.6</ele>
        <time>2019-05-15T07:56:57Z</time>
      </trkpt>
      <trkpt lat="39.794466" lon="-6.284522">
        <ele>292.0</ele>
        <time>2019-05-15T07:57:07Z</time>
      </trkpt>
      <trkpt lat="39.794406" lon="-6.284425">
        <ele>295.0</ele>
        <time>2019-05-15T07:57:17Z</time>
      </trkpt>
      <trkpt lat="39.794345" lon="-6.284311">
        <ele>296.4</ele>
        <time>2019-05-15T07:57:28Z</time>
      </trkpt>
      <trkpt lat="39.794285" lon="-6.284068">
        <ele>300.2</ele>
        <time>2019-05-15T07:57:47Z</time>
      </trkpt>
      <trkpt lat="39.794227" lon="-6.283775">
        <ele>302.6</ele>
        <time>2019-05-15T07:58:11Z</time>
      </trkpt>
      <trkpt lat="39.794194" lon="-6.283569">
        <ele>302.5</ele>
        <time>2019-05-15T07:58:27Z</time>
      </trkpt>
      <trkpt lat="39.794201" lon="-6.283426">
        <ele>302.3</ele>
        <time>2019-05-15T07:58:38Z</time>
      </trkpt>
      <trkpt lat="39.794295" lon="-6.283145">
        <ele>300.3</ele>
        <time>2019-05-15T07:59:01Z</time>
      </trkpt>
      <trkpt lat="39.794509" lon="-6.282949">
        <ele>299.8</ele>
        <time>2019-05-15T07:59:27Z</time>
      </trkpt>
      <trkpt lat="39.794676" lon="-6.282569">
        <ele>301.6</ele>
        <time>2019-05-15T08:00:00Z</time>
      </trkpt>
      <trkpt lat="39.794895" lon="-6.282204">
        <ele>302.4</ele>
        <time>2019-05-15T08:00:36Z</time>
      </trkpt>
      <trkpt lat="39.795041" lon="-6.282111">
        <ele>302.0</ele>
        <time>2019-05-15T08:00:52Z</time>
      </trkpt>
      <trkpt lat="39.795256" lon="-6.282004">
        <ele>302.7</ele>
        <time>2019-05-15T08:01:15Z</time>
      </trkpt>
      <trkpt lat="39.795454" lon="-6.281916">
        <ele>302.0</ele>
        <time>2019-05-15T08:01:35Z</time>
      </trkpt>
      <trkpt lat="39.795499" lon="-6.281816">
        <ele>301.9</ele>
        <time>2019-05-15T08:01:44Z</time>
      </trkpt>
      <trkpt lat="39.795450" lon="-6.281539">
        <ele>302.6</ele>
        <time>2019-05-15T08:02:06Z</time>
      </trkpt>
      <trkpt lat="39.795459" lon="-6.281389">
        <ele>300.5</ele>
        <time>2019-05-15T08:02:17Z</time>
      </trkpt>
      <trkpt lat="39.795494" lon="-6.281244">
        <ele>299.0</ele>
        <time>2019-05-15T08:02:29Z</time>
      </trkpt>
      <trkpt lat="39.795419" lon="-6.281025">
        <ele>301.5</ele>
        <time>2019-05-15T08:02:48Z</time>
      </trkpt>
      <trkpt lat="39.795241" lon="-6.280705">
        <ele>302.8</ele>
        <time>2019-05-15T08:03:18Z</time>
      </trkpt>
      <trkpt lat="39.795127" lon="-6.280484">
        <ele>305.0</ele>
        <time>2019-05-15T08:03:38Z</time>
      </trkpt>
      <trkpt lat="39.795069" lon="-6.280306">
        <ele>306.4</ele>
        <time>2019-05-15T08:03:53Z</time>
      </trkpt>
      <trkpt lat="39.795033" lon="-6.280114">
        <ele>305.4</ele>
        <time>2019-05-15T08:04:08Z</time>
      </trkpt>
      <trkpt lat="39.795009" lon="-6.279732">
        <ele>303.4</ele>
        <time>2019-05-15T08:04:37Z</time>
      </trkpt>
      <trkpt lat="39.795007" lon="-6.279350">
        <ele>301.6</ele>
        <time>2019-05-15T08:05:06Z</time>
      </trkpt>
      <trkpt lat="39.794950" lon="-6.278982">
        <ele>304.3</ele>
        <time>2019-05-15T08:05:35Z</time>
      </trkpt>
      <trkpt lat="39.794853" lon="-6.278814">
        <ele>306.0</ele>
        <time>2019-05-15T08:05:51Z</time>
      </trkpt>
      <trkpt lat="39.794781" lon="-6.278811">
        <ele>306.0</ele>
        <time>2019-05-15T08:05:58Z</time>
      </trkpt>
      <trkpt lat="39.794517" lon="-6.279090">
        <ele>306.0</ele>
        <time>2019-05-15T08:06:32Z</time>
      </trkpt>
      <trkpt lat="39.794375" lon="-6.279127">
        <ele>305.5</ele>
        <time>2019-05-15T08:06:46Z</time>
      </trkpt>
      <trkpt lat="39.794373" lon="-6.278992">
        <ele>307.0</ele>
        <time>2019-05-15T08:06:57Z</time>
      </trkpt>
      <trkpt lat="39.794377" lon="-6.278912">
        <ele>307.0</ele>
        <time>2019-05-15T08:07:03Z</time>
      </trkpt>
      <trkpt lat="39.794733" lon="-6.278828">
        <ele>306.0</ele>
        <time>2019-05-15T08:07:39Z</time>
      </trkpt>
      <trkpt lat="39.794747" lon="-6.278649">
        <ele>306.0</ele>
        <time>2019-05-15T08:07:52Z</time>
      </trkpt>
      <trkpt lat="39.794737" lon="-6.278520">
        <ele>305.8</ele>
        <time>2019-05-15T08:08:02Z</time>
      </trkpt>
      <trkpt lat="39.794816" lon="-6.278266">
        <ele>304.0</ele>
        <time>2019-05-15T08:08:23Z</time>
      </trkpt>
      <trkpt lat="39.794889" lon="-6.278123">
        <ele>304.3</ele>
        <time>2019-05-15T08:08:36Z</time>
      </trkpt>
      <trkpt lat="39.794868" lon="-6.277999">
        <ele>302.9</ele>
        <time>2019-05-15T08:08:46Z</time>
      </trkpt>
      <trkpt lat="39.794691" lon="-6.277737">
        <ele>300.4</ele>
        <time>2019-05-15T08:09:13Z</time>
      </trkpt>
      <trkpt lat="39.794702" lon="-6.277634">
        <ele>299.3</ele>
        <time>2019-05-15T08:09:21Z</time>
      </trkpt>
      <trkpt lat="39.794748" lon="-6.277463">
        <ele>296.9</ele>
        <time>2019-05-15T08:09:35Z</time>
      </trkpt>
      <trkpt lat="39.794712" lon="-6.277292">
        <ele>295.2</ele>
        <time>2019-05-15T08:09:48Z</time>
      </trkpt>
      <trkpt lat="39.794713" lon="-6.277132">
        <ele>293.2</ele>
        <time>2019-05-15T08:10:01Z</time>
      </trkpt>
      <trkpt lat="39.794667" lon="-6.277087">
        <ele>292.5</ele>
        <time>2019-05-15T08:10:06Z</time>
      </trkpt>
      <trkpt lat="39.794584" lon="-6.277128">
        <ele>292.0</ele>
        <time>2019-05-15T08:10:15Z</time>
      </trkpt>
      <trkpt lat="39.794514" lon="-6.277116">
        <ele>290.0</ele>
        <time>2019-05-15T08:10:22Z</time>
      </trkpt>
      <trkpt lat="39.794469" lon="-6.277089">
        <ele>289.5</ele>
        <time>2019-05-15T08:10:27Z</time>
      </trkpt>
      <trkpt lat="39.794222" lon="-6.276923">
        <ele>283.7</ele>
        <time>2019-05-15T08:10:55Z</time>
      </trkpt>
      <trkpt lat="39.794343" lon="-6.277021">
        <ele>286.9</ele>
        <time>2019-05-15T08:11:10Z</time>
      </trkpt>
      <trkpt lat="39.794469" lon="-6.277089">
        <ele>289.5</ele>
        <time>2019-05-15T08:11:24Z</time>
      </trkpt>
      <trkpt lat="39.794514" lon="-6.277116">
        <ele>290.0</ele>
        <time>2019-05-15T08:11:29Z</time>
      </trkpt>
      <trkpt lat="39.794584" lon="-6.277128">
        <ele>292.0</ele>
        <time>2019-05-15T08:11:36Z</time>
      </trkpt>
      <trkpt lat="39.794667" lon="-6.277087">
        <ele>292.5</ele>
        <time>2019-05-15T08:11:45Z</time>
      </trkpt>
      <trkpt lat="39.794713" lon="-6.277132">
        <ele>293.2</ele>
        <time>2019-05-15T08:11:50Z</time>
      </trkpt>
      <trkpt lat="39.794712" lon="-6.277292">
        <ele>295.2</ele>
        <time>2019-05-15T08:12:03Z</time>
      </trkpt>
      <trkpt lat="39.794748" lon="-6.277463">
        <ele>296.9</ele>
        <time>2019-05-15T08:12:16Z</time>
      </trkpt>
      <trkpt lat="39.794702" lon="-6.277634">
        <ele>299.3</ele>
        <time>2019-05-15T08:12:30Z</time>
      </trkpt>
      <trkpt lat="39.794691" lon="-6.277737">
        <ele>300.4</ele>
        <time>2019-05-15T08:12:38Z</time>
      </trkpt>
      <trkpt lat="39.794868" lon="-6.277999">
        <ele>302.9</ele>
        <time>2019-05-15T08:13:05Z</time>
      </trkpt>
      <trkpt lat="39.794889" lon="-6.278123">
        <ele>304.3</ele>
        <time>2019-05-15T08:13:15Z</time>
      </trkpt>
      <trkpt lat="39.794816" lon="-6.278266">
        <ele>304.0</ele>
        <time>2019-05-15T08:13:28Z</time>
      </trkpt>
      <trkpt lat="39.794737" lon="-6.278520">
        <ele>305.8</ele>
        <time>2019-05-15T08:13:49Z</time>
      </trkpt>
      <trkpt lat="39.794747" lon="-6.278649">
        <ele>306.0</ele>
        <time>2019-05-15T08:13:59Z</time>
      </trkpt>
      <trkpt lat="39.794817" lon="-6.278753">
        <ele>306.0</ele>
        <time>2019-05-15T08:14:09Z</time>
      </trkpt>
      <trkpt lat="39.794950" lon="-6.278982">
        <ele>304.3</ele>
        <time>2019-05-15T08:14:31Z</time>
      </trkpt>
      <trkpt lat="39.795007" lon="-6.279350">
        <ele>301.6</ele>
        <time>2019-05-15T08:15:00Z</time>
      </trkpt>
      <trkpt lat="39.795009" lon="-6.279732">
        <ele>303.4</ele>
        <time>2019-05-15T08:15:29Z</time>
      </trkpt>
      <trkpt lat="39.795033" lon="-6.280114">
        <ele>305.4</ele>
        <time>2019-05-15T08:15:58Z</time>
      </trkpt>
      <trkpt lat="39.795069" lon="-6.280306">
        <ele>306.4</ele>
        <time>2019-05-15T08:16:13Z</time>
      </trkpt>
      <trkpt lat="39.795127" lon="-6.280484">
        <ele>305.0</ele>
        <time>2019-05-15T08:16:28Z</time>
      </trkpt>
      <trkpt lat="39.795241" lon="-6.280705">
        <ele>302.8</ele>
        <time>2019-05-15T08:16:48Z</time>
      </trkpt>
      <trkpt lat="39.795419" lon="-6.281025">
        <ele>301.5</ele>
        <time>2019-05-15T08:17:19Z</time>
      </trkpt>
      <trkpt lat="39.795494" lon="-6.281244">
        <ele>299.0</ele>
        <time>2019-05-15T08:17:37Z</time>
      </trkpt>
      <trkpt lat="39.795459" lon="-6.281389">
        <ele>300.5</ele>
        <time>2019-05-15T08:17:49Z</time>
      </trkpt>
      <trkpt lat="39.795450" lon="-6.281539">
        <ele>302.6</ele>
        <time>2019-05-15T08:18:00Z</time>
      </trkpt>
      <trkpt lat="39.795499" lon="-6.281816">
        <ele>301.9</ele>
        <time>2019-05-15T08:18:22Z</time>
      </trkpt>
      <trkpt lat="39.795454" lon="-6.281916">
        <ele>302.0</ele>
        <time>2019-05-15T08:18:31Z</time>
      </trkpt>
      <trkpt lat="39.795256" lon="-6.282004">
        <ele>302.7</ele>
        <time>2019-05-15T08:18:51Z</time>
      </trkpt>
      <trkpt lat="39.795041" lon="-6.282111">
        <ele>302.0</ele>
        <time>2019-05-15T08:19:14Z</time>
      </trkpt>
      <trkpt lat="39.794895" lon="-6.282204">
        <ele>302.4</ele>
        <time>2019-05-15T08:19:30Z</time>
      </trkpt>
      <trkpt lat="39.794676" lon="-6.282569">
        <ele>301.6</ele>
        <time>2019-05-15T08:20:06Z</time>
      </trkpt>
      <trkpt lat="39.794509" lon="-6.282949">
        <ele>299.8</ele>
        <time>2019-05-15T08:20:39Z</time>
      </trkpt>
      <trkpt lat="39.794295" lon="-6.283145">
        <ele>300.3</ele>
        <time>2019-05-15T08:21:05Z</time>
      </trkpt>
      <trkpt lat="39.794201" lon="-6.283426">
        <ele>302.3</ele>
        <time>2019-05-15T08:21:29Z</time>
      </trkpt>
      <trkpt lat="39.794194" lon="-6.283569">
        <ele>302.5</ele>
        <time>2019-05-15T08:21:39Z</time>
      </trkpt>
      <trkpt lat="39.794227" lon="-6.283775">
        <ele>302.6</ele>
        <time>2019-05-15T08:21:55Z</time>
      </trkpt>
      <trkpt lat="39.794285" lon="-6.284068">
        <ele>300.2</ele>
        <time>2019-05-15T08:22:19Z</time>
      </trkpt>
      <trkpt lat="39.794345" lon="-6.284311">
        <ele>296.4</ele>
        <time>2019-05-15T08:22:38Z</time>
      </trkpt>
      <trkpt lat="39.794406" lon="-6.284425">
        <ele>295.0</ele>
        <time>2019-05-15T08:22:49Z</time>
      </trkpt>
      <trkpt lat="39.794466" lon="-6.284522">
        <ele>292.0</ele>
        <time>2019-05-15T08:22:59Z</time>
      </trkpt>
      <trkpt lat="39.794563" lon="-6.284559">
        <ele>289.6</ele>
        <time>2019-05-15T08:23:09Z</time>
      </trkpt>
      <trkpt lat="39.794629" lon="-6.284591">
        <ele>288.2</ele>
        <time>2019-05-15T08:23:16Z</time>
      </trkpt>
      <trkpt lat="39.794741" lon="-6.284563">
        <ele>286.4</ele>
        <time>2019-05-15T08:23:28Z</time>
      </trkpt>
      <trkpt lat="39.794827" lon="-6.284505">
        <ele>286.1</ele>
        <time>2019-05-15T08:23:37Z</time>
      </trkpt>
      <trkpt lat="39.794914" lon="-6.284475">
        <ele>285.3</ele>
        <time>2019-05-15T08:23:46Z</time>
      </trkpt>
      <trkpt lat="39.794957" lon="-6.284488">
        <ele>284.4</ele>
        <time>2019-05-15T08:23:51Z</time>
      </trkpt>
      <trkpt lat="39.794995" lon="-6.284536">
        <ele>284.0</ele>
        <time>2019-05-15T08:23:56Z</time>
      </trkpt>
      <trkpt lat="39.795025" lon="-6.284598">
        <ele>284.6</ele>
        <time>2019-05-15T08:24:02Z</time>
      </trkpt>
      <trkpt lat="39.795034" lon="-6.284680">
        <ele>286.2</ele>
        <time>2019-05-15T08:24:08Z</time>
      </trkpt>
      <trkpt lat="39.795020" lon="-6.284800">
        <ele>288.2</ele>
        <time>2019-05-15T08:24:17Z</time>
      </trkpt>
      <trkpt lat="39.794975" lon="-6.284900">
        <ele>288.9</ele>
        <time>2019-05-15T08:24:26Z</time>
      </trkpt>
      <trkpt lat="39.794978" lon="-6.284977">
        <ele>289.6</ele>
        <time>2019-05-15T08:24:32Z</time>
      </trkpt>
      <trkpt lat="39.794986" lon="-6.285176">
        <ele>289.9</ele>
        <time>2019-05-15T08:24:47Z</time>
      </trkpt>
      <trkpt lat="39.795000" lon="-6.285320">
        <ele>289.4</ele>
        <time>2019-05-15T08:24:58Z</time>
      </trkpt>
      <trkpt lat="39.795016" lon="-6.285444">
        <ele>290.0</ele>
        <time>2019-05-15T08:25:08Z</time>
      </trkpt>
      <trkpt lat="39.795016" lon="-6.285799">
        <ele>290.5</ele>
        <time>2019-05-15T08:25:35Z</time>
      </trkpt>
      <trkpt lat="39.795067" lon="-6.286224">
        <ele>292.4</ele>
        <time>2019-05-15T08:26:08Z</time>
      </trkpt>
      <trkpt lat="39.795172" lon="-6.286719">
        <ele>295.2</ele>
        <time>2019-05-15T08:26:47Z</time>
      </trkpt>
      <trkpt lat="39.795312" lon="-6.287267">
        <ele>297.7</ele>
        <time>2019-05-15T08:27:31Z</time>
      </trkpt>
      <trkpt lat="39.795472" lon="-6.287707">
        <ele>301.4</ele>
        <time>2019-05-15T08:28:08Z</time>
      </trkpt>
      <trkpt lat="39.795562" lon="-6.288067">
        <ele>303.0</ele>
        <time>2019-05-15T08:28:37Z</time>
      </trkpt>
      <trkpt lat="39.795622" lon="-6.288348">
        <ele>305.7</ele>
        <time>2019-05-15T08:29:00Z</time>
      </trkpt>
      <trkpt lat="39.795702" lon="-6.288716">
        <ele>309.4</ele>
        <time>2019-05-15T08:29:29Z</time>
      </trkpt>
      <trkpt lat="39.795771" lon="-6.288996">
        <ele>311.9</ele>
        <time>2019-05-15T08:29:52Z</time>
      </trkpt>
      <trkpt lat="39.795871" lon="-6.289356">
        <ele>315.8</ele>
        <time>2019-05-15T08:30:21Z</time>
      </trkpt>
      <trkpt lat="39.795952" lon="-6.289626">
        <ele>319.2</ele>
        <time>2019-05-15T08:30:43Z</time>
      </trkpt>
      <trkpt lat="39.796020" lon="-6.289986">
        <ele>322.9</ele>
        <time>2019-05-15T08:31:12Z</time>
      </trkpt>
      <trkpt lat="39.796070" lon="-6.290306">
        <ele>327.0</ele>
        <time>2019-05-15T08:31:37Z</time>
      </trkpt>
      <trkpt lat="39.796110" lon="-6.290614">
        <ele>328.5</ele>
        <time>2019-05-15T08:32:01Z</time>
      </trkpt>
      <trkpt lat="39.796053" lon="-6.291367">
        <ele>325.5</ele>
        <time>2019-05-15T08:32:58Z</time>
      </trkpt>
      <trkpt lat="39.796032" lon="-6.292497">
        <ele>328.0</ele>
        <time>2019-05-15T08:34:24Z</time>
      </trkpt>
      <trkpt lat="39.796037" lon="-6.292601">
        <ele>328.8</ele>
        <time>2019-05-15T08:34:32Z</time>
      </trkpt>
      <trkpt lat="39.796068" lon="-6.292706">
        <ele>329.0</ele>
        <time>2019-05-15T08:34:41Z</time>
      </trkpt>
      <trkpt lat="39.796200" lon="-6.292890">
        <ele>330.0</ele>
        <time>2019-05-15T08:35:00Z</time>
      </trkpt>
      <trkpt lat="39.796283" lon="-6.293016">
        <ele>330.0</ele>
        <time>2019-05-15T08:35:13Z</time>
      </trkpt>
      <trkpt lat="39.796419" lon="-6.293102">
        <ele>331.0</ele>
        <time>2019-05-15T08:35:28Z</time>
      </trkpt>
      <trkpt lat="39.796556" lon="-6.293151">
        <ele>332.2</ele>
        <time>2019-05-15T08:35:42Z</time>
      </trkpt>
      <trkpt lat="39.796727" lon="-6.293226">
        <ele>334.2</ele>
        <time>2019-05-15T08:36:00Z</time>
      </trkpt>
      <trkpt lat="39.796940" lon="-6.293367">
        <ele>335.9</ele>
        <time>2019-05-15T08:36:24Z</time>
      </trkpt>
      <trkpt lat="39.797198" lon="-6.293614">
        <ele>339.0</ele>
        <time>2019-05-15T08:36:56Z</time>
      </trkpt>
      <trkpt lat="39.797256" lon="-6.293749">
        <ele>340.3</ele>
        <time>2019-05-15T08:37:08Z</time>
      </trkpt>
      <trkpt lat="39.797380" lon="-6.293950">
        <ele>342.5</ele>
        <time>2019-05-15T08:37:27Z</time>
      </trkpt>
      <trkpt lat="39.797423" lon="-6.294114">
        <ele>344.0</ele>
        <time>2019-05-15T08:37:41Z</time>
      </trkpt>
      <trkpt lat="39.797513" lon="-6.294370">
        <ele>346.8</ele>
        <time>2019-05-15T08:38:02Z</time>
      </trkpt>
      <trkpt lat="39.797571" lon="-6.294519">
        <ele>347.1</ele>
        <time>2019-05-15T08:38:15Z</time>
      </trkpt>
      <trkpt lat="39.797744" lon="-6.294717">
        <ele>347.6</ele>
        <time>2019-05-15T08:38:38Z</time>
      </trkpt>
      <trkpt lat="39.797833" lon="-6.294758">
        <ele>348.0</ele>
        <time>2019-05-15T08:38:47Z</time>
      </trkpt>
      <trkpt lat="39.797900" lon="-6.294834">
        <ele>348.5</ele>
        <time>2019-05-15T08:38:56Z</time>
      </trkpt>
      <trkpt lat="39.797957" lon="-6.294963">
        <ele>349.5</ele>
        <time>2019-05-15T08:39:07Z</time>
      </trkpt>
      <trkpt lat="39.798034" lon="-6.295158">
        <ele>350.8</ele>
        <time>2019-05-15T08:39:24Z</time>
      </trkpt>
      <trkpt lat="39.798112" lon="-6.295347">
        <ele>351.4</ele>
        <time>2019-05-15T08:39:40Z</time>
      </trkpt>
      <trkpt lat="39.798228" lon="-6.295675">
        <ele>352.2</ele>
        <time>2019-05-15T08:40:08Z</time>
      </trkpt>
      <trkpt lat="39.798320" lon="-6.296057">
        <ele>354.0</ele>
        <time>2019-05-15T08:40:38Z</time>
      </trkpt>
      <trkpt lat="39.798360" lon="-6.296417">
        <ele>354.9</ele>
        <time>2019-05-15T08:41:06Z</time>
      </trkpt>
      <trkpt lat="39.798353" lon="-6.296801">
        <ele>356.2</ele>
        <time>2019-05-15T08:41:35Z</time>
      </trkpt>
      <trkpt lat="39.798374" lon="-6.297115">
        <ele>358.0</ele>
        <time>2019-05-15T08:42:00Z</time>
      </trkpt>
      <trkpt lat="39.798406" lon="-6.297412">
        <ele>359.4</ele>
        <time>2019-05-15T08:42:22Z</time>
      </trkpt>
      <trkpt lat="39.798473" lon="-6.297788">
        <ele>362.5</ele>
        <time>2019-05-15T08:42:52Z</time>
      </trkpt>
      <trkpt lat="39.798569" lon="-6.298138">
        <ele>366.1</ele>
        <time>2019-05-15T08:43:20Z</time>
      </trkpt>
      <trkpt lat="39.798689" lon="-6.298279">
        <ele>368.0</ele>
        <time>2019-05-15T08:43:37Z</time>
      </trkpt>
      <trkpt lat="39.798882" lon="-6.298344">
        <ele>369.5</ele>
        <time>2019-05-15T08:43:56Z</time>
      </trkpt>
      <trkpt lat="39.799081" lon="-6.298439">
        <ele>370.4</ele>
        <time>2019-05-15T08:44:17Z</time>
      </trkpt>
      <trkpt lat="39.799210" lon="-6.298550">
        <ele>371.0</ele>
        <time>2019-05-15T08:44:33Z</time>
      </trkpt>
      <trkpt lat="39.799354" lon="-6.298781">
        <ele>371.7</ele>
        <time>2019-05-15T08:44:55Z</time>
      </trkpt>
      <trkpt lat="39.799553" lon="-6.299089">
        <ele>374.0</ele>
        <time>2019-05-15T08:45:26Z</time>
      </trkpt>
      <trkpt lat="39.799611" lon="-6.299195">
        <ele>375.0</ele>
        <time>2019-05-15T08:45:36Z</time>
      </trkpt>
      <trkpt lat="39.799752" lon="-6.299417">
        <ele>377.0</ele>
        <time>2019-05-15T08:45:58Z</time>
      </trkpt>
      <trkpt lat="39.799908" lon="-6.299653">
        <ele>378.0</ele>
        <time>2019-05-15T08:46:22Z</time>
      </trkpt>
      <trkpt lat="39.800068" lon="-6.299916">
        <ele>378.0</ele>
        <time>2019-05-15T08:46:47Z</time>
      </trkpt>
      <trkpt lat="39.800327" lon="-6.300306">
        <ele>377.6</ele>
        <time>2019-05-15T08:47:27Z</time>
      </trkpt>
      <trkpt lat="39.800530" lon="-6.300639">
        <ele>378.0</ele>
        <time>2019-05-15T08:47:59Z</time>
      </trkpt>
      <trkpt lat="39.800602" lon="-6.300980">
        <ele>378.0</ele>
        <time>2019-05-15T08:48:26Z</time>
      </trkpt>
      <trkpt lat="39.800712" lon="-6.301309">
        <ele>378.3</ele>
        <time>2019-05-15T08:48:53Z</time>
      </trkpt>
      <trkpt lat="39.800866" lon="-6.301538">
        <ele>379.0</ele>
        <time>2019-05-15T08:49:17Z</time>
      </trkpt>
      <trkpt lat="39.801052" lon="-6.301763">
        <ele>379.0</ele>
        <time>2019-05-15T08:49:42Z</time>
      </trkpt>
      <trkpt lat="39.801131" lon="-6.301910">
        <ele>379.5</ele>
        <time>2019-05-15T08:49:55Z</time>
      </trkpt>
      <trkpt lat="39.801220" lon="-6.302120">
        <ele>379.9</ele>
        <time>2019-05-15T08:50:14Z</time>
      </trkpt>
      <trkpt lat="39.801244" lon="-6.302324">
        <ele>380.5</ele>
        <time>2019-05-15T08:50:29Z</time>
      </trkpt>
      <trkpt lat="39.801306" lon="-6.302647">
        <ele>382.7</ele>
        <time>2019-05-15T08:50:55Z</time>
      </trkpt>
      <trkpt lat="39.801495" lon="-6.303089">
        <ele>386.8</ele>
        <time>2019-05-15T08:51:34Z</time>
      </trkpt>
      <trkpt lat="39.801648" lon="-6.303305">
        <ele>389.5</ele>
        <time>2019-05-15T08:51:56Z</time>
      </trkpt>
      <trkpt lat="39.801792" lon="-6.303464">
        <ele>391.0</ele>
        <time>2019-05-15T08:52:15Z</time>
      </trkpt>
      <trkpt lat="39.801934" lon="-6.303574">
        <ele>392.7</ele>
        <time>2019-05-15T08:52:31Z</time>
      </trkpt>
      <trkpt lat="39.802156" lon="-6.303740">
        <ele>394.3</ele>
        <time>2019-05-15T08:52:57Z</time>
      </trkpt>
      <trkpt lat="39.802391" lon="-6.303854">
        <ele>396.4</ele>
        <time>2019-05-15T08:53:22Z</time>
      </trkpt>
      <trkpt lat="39.802466" lon="-6.303895">
        <ele>396.9</ele>
        <time>2019-05-15T08:53:30Z</time>
      </trkpt>
      <trkpt lat="39.802609" lon="-6.303942">
        <ele>398.2</ele>
        <time>2019-05-15T08:53:45Z</time>
      </trkpt>
      <trkpt lat="39.802844" lon="-6.303959">
        <ele>399.2</ele>
        <time>2019-05-15T08:54:08Z</time>
      </trkpt>
      <trkpt lat="39.802932" lon="-6.303961">
        <ele>400.0</ele>
        <time>2019-05-15T08:54:17Z</time>
      </trkpt>
      <trkpt lat="39.803056" lon="-6.303985">
        <ele>399.0</ele>
        <time>2019-05-15T08:54:29Z</time>
      </trkpt>
      <trkpt lat="39.803155" lon="-6.304090">
        <ele>398.0</ele>
        <time>2019-05-15T08:54:42Z</time>
      </trkpt>
      <trkpt lat="39.803430" lon="-6.304460">
        <ele>397.0</ele>
        <time>2019-05-15T08:55:21Z</time>
      </trkpt>
      <trkpt lat="39.803540" lon="-6.304610">
        <ele>397.9</ele>
        <time>2019-05-15T08:55:37Z</time>
      </trkpt>
      <trkpt lat="39.803600" lon="-6.304680">
        <ele>398.1</ele>
        <time>2019-05-15T08:55:45Z</time>
      </trkpt>
      <trkpt lat="39.803780" lon="-6.304910">
        <ele>400.2</ele>
        <time>2019-05-15T08:56:10Z</time>
      </trkpt>
      <trkpt lat="39.803953" lon="-6.305109">
        <ele>402.3</ele>
        <time>2019-05-15T08:56:33Z</time>
      </trkpt>
      <trkpt lat="39.804150" lon="-6.305350">
        <ele>404.7</ele>
        <time>2019-05-15T08:57:00Z</time>
      </trkpt>
      <trkpt lat="39.804560" lon="-6.305800">
        <ele>409.0</ele>
        <time>2019-05-15T08:57:53Z</time>
      </trkpt>
      <trkpt lat="39.804722" lon="-6.306007">
        <ele>411.0</ele>
        <time>2019-05-15T08:58:16Z</time>
      </trkpt>
      <trkpt lat="39.804880" lon="-6.306197">
        <ele>413.0</ele>
        <time>2019-05-15T08:58:37Z</time>
      </trkpt>
      <trkpt lat="39.805030" lon="-6.306360">
        <ele>414.0</ele>
        <time>2019-05-15T08:58:57Z</time>
      </trkpt>
      <trkpt lat="39.805163" lon="-6.306539">
        <ele>415.0</ele>
        <time>2019-05-15T08:59:16Z</time>
      </trkpt>
      <trkpt lat="39.805440" lon="-6.306856">
        <ele>415.8</ele>
        <time>2019-05-15T08:59:52Z</time>
      </trkpt>
      <trkpt lat="39.805536" lon="-6.306995">
        <ele>416.0</ele>
        <time>2019-05-15T09:00:06Z</time>
      </trkpt>
      <trkpt lat="39.805750" lon="-6.307288">
        <ele>415.0</ele>
        <time>2019-05-15T09:00:37Z</time>
      </trkpt>
      <trkpt lat="39.805900" lon="-6.307603">
        <ele>413.6</ele>
        <time>2019-05-15T09:01:05Z</time>
      </trkpt>
      <trkpt lat="39.806044" lon="-6.307929">
        <ele>412.0</ele>
        <time>2019-05-15T09:01:34Z</time>
      </trkpt>
      <trkpt lat="39.806187" lon="-6.308140">
        <ele>411.0</ele>
        <time>2019-05-15T09:01:56Z</time>
      </trkpt>
      <trkpt lat="39.806350" lon="-6.308330">
        <ele>411.0</ele>
        <time>2019-05-15T09:02:17Z</time>
      </trkpt>
      <trkpt lat="39.806538" lon="-6.308558">
        <ele>412.0</ele>
        <time>2019-05-15T09:02:43Z</time>
      </trkpt>
      <trkpt lat="39.806790" lon="-6.308864">
        <ele>413.0</ele>
        <time>2019-05-15T09:03:17Z</time>
      </trkpt>
      <trkpt lat="39.807140" lon="-6.309260">
        <ele>415.2</ele>
        <time>2019-05-15T09:04:03Z</time>
      </trkpt>
      <trkpt lat="39.807206" lon="-6.309378">
        <ele>416.0</ele>
        <time>2019-05-15T09:04:14Z</time>
      </trkpt>
      <trkpt lat="39.807369" lon="-6.309622">
        <ele>418.7</ele>
        <time>2019-05-15T09:04:39Z</time>
      </trkpt>
      <trkpt lat="39.807446" lon="-6.309796">
        <ele>419.8</ele>
        <time>2019-05-15T09:04:54Z</time>
      </trkpt>
      <trkpt lat="39.807558" lon="-6.310096">
        <ele>421.0</ele>
        <time>2019-05-15T09:05:20Z</time>
      </trkpt>
      <trkpt lat="39.807623" lon="-6.310436">
        <ele>421.0</ele>
        <time>2019-05-15T09:05:46Z</time>
      </trkpt>
      <trkpt lat="39.807752" lon="-6.310918">
        <ele>421.0</ele>
        <time>2019-05-15T09:06:25Z</time>
      </trkpt>
      <trkpt lat="39.807962" lon="-6.311384">
        <ele>420.0</ele>
        <time>2019-05-15T09:07:06Z</time>
      </trkpt>
      <trkpt lat="39.808119" lon="-6.311806">
        <ele>419.0</ele>
        <time>2019-05-15T09:07:42Z</time>
      </trkpt>
      <trkpt lat="39.808291" lon="-6.312179">
        <ele>419.0</ele>
        <time>2019-05-15T09:08:15Z</time>
      </trkpt>
      <trkpt lat="39.808469" lon="-6.312369">
        <ele>419.0</ele>
        <time>2019-05-15T09:08:38Z</time>
      </trkpt>
      <trkpt lat="39.808682" lon="-6.312475">
        <ele>420.0</ele>
        <time>2019-05-15T09:09:01Z</time>
      </trkpt>
      <trkpt lat="39.808780" lon="-6.312580">
        <ele>421.0</ele>
        <time>2019-05-15T09:09:13Z</time>
      </trkpt>
      <trkpt lat="39.808886" lon="-6.312855">
        <ele>422.0</ele>
        <time>2019-05-15T09:09:37Z</time>
      </trkpt>
      <trkpt lat="39.809087" lon="-6.313316">
        <ele>422.5</ele>
        <time>2019-05-15T09:10:17Z</time>
      </trkpt>
      <trkpt lat="39.809188" lon="-6.313574">
        <ele>423.0</ele>
        <time>2019-05-15T09:10:39Z</time>
      </trkpt>
      <trkpt lat="39.809355" lon="-6.313983">
        <ele>424.2</ele>
        <time>2019-05-15T09:11:15Z</time>
      </trkpt>
      <trkpt lat="39.809431" lon="-6.314262">
        <ele>425.0</ele>
        <time>2019-05-15T09:11:37Z</time>
      </trkpt>
      <trkpt lat="39.809512" lon="-6.314561">
        <ele>426.0</ele>
        <time>2019-05-15T09:12:01Z</time>
      </trkpt>
      <trkpt lat="39.809561" lon="-6.314921">
        <ele>426.0</ele>
        <time>2019-05-15T09:12:29Z</time>
      </trkpt>
      <trkpt lat="39.809585" lon="-6.315213">
        <ele>427.0</ele>
        <time>2019-05-15T09:12:52Z</time>
      </trkpt>
      <trkpt lat="39.809602" lon="-6.315617">
        <ele>426.0</ele>
        <time>2019-05-15T09:13:22Z</time>
      </trkpt>
      <trkpt lat="39.809746" lon="-6.316470">
        <ele>423.0</ele>
        <time>2019-05-15T09:14:29Z</time>
      </trkpt>
      <trkpt lat="39.809879" lon="-6.317160">
        <ele>420.3</ele>
        <time>2019-05-15T09:15:23Z</time>
      </trkpt>
      <trkpt lat="39.809970" lon="-6.317530">
        <ele>418.0</ele>
        <time>2019-05-15T09:15:53Z</time>
      </trkpt>
      <trkpt lat="39.810048" lon="-6.317939">
        <ele>417.0</ele>
        <time>2019-05-15T09:16:25Z</time>
      </trkpt>
      <trkpt lat="39.810089" lon="-6.318105">
        <ele>417.0</ele>
        <time>2019-05-15T09:16:38Z</time>
      </trkpt>
      <trkpt lat="39.810170" lon="-6.318459">
        <ele>416.0</ele>
        <time>2019-05-15T09:17:06Z</time>
      </trkpt>
      <trkpt lat="39.810188" lon="-6.318689">
        <ele>416.5</ele>
        <time>2019-05-15T09:17:24Z</time>
      </trkpt>
      <trkpt lat="39.810235" lon="-6.319074">
        <ele>419.0</ele>
        <time>2019-05-15T09:17:54Z</time>
      </trkpt>
      <trkpt lat="39.810230" lon="-6.319105">
        <ele>419.0</ele>
        <time>2019-05-15T09:17:56Z</time>
      </trkpt>
      <trkpt lat="39.810295" lon="-6.319590">
        <ele>421.5</ele>
        <time>2019-05-15T09:18:34Z</time>
      </trkpt>
      <trkpt lat="39.810354" lon="-6.319872">
        <ele>423.5</ele>
        <time>2019-05-15T09:18:56Z</time>
      </trkpt>
      <trkpt lat="39.810477" lon="-6.320048">
        <ele>425.4</ele>
        <time>2019-05-15T09:19:14Z</time>
      </trkpt>
      <trkpt lat="39.810772" lon="-6.320278">
        <ele>427.0</ele>
        <time>2019-05-15T09:19:49Z</time>
      </trkpt>
      <trkpt lat="39.811164" lon="-6.320499">
        <ele>427.0</ele>
        <time>2019-05-15T09:20:31Z</time>
      </trkpt>
      <trkpt lat="39.811695" lon="-6.320921">
        <ele>425.7</ele>
        <time>2019-05-15T09:21:33Z</time>
      </trkpt>
      <trkpt lat="39.812184" lon="-6.321507">
        <ele>427.0</ele>
        <time>2019-05-15T09:22:39Z</time>
      </trkpt>
      <trkpt lat="39.812759" lon="-6.322363">
        <ele>428.8</ele>
        <time>2019-05-15T09:24:05Z</time>
      </trkpt>
      <trkpt lat="39.813030" lon="-6.322904">
        <ele>430.8</ele>
        <time>2019-05-15T09:24:54Z</time>
      </trkpt>
      <trkpt lat="39.812984" lon="-6.323195">
        <ele>431.3</ele>
        <time>2019-05-15T09:25:17Z</time>
      </trkpt>
      <trkpt lat="39.812902" lon="-6.323511">
        <ele>431.7</ele>
        <time>2019-05-15T09:25:42Z</time>
      </trkpt>
      <trkpt lat="39.812733" lon="-6.324072">
        <ele>430.7</ele>
        <time>2019-05-15T09:26:28Z</time>
      </trkpt>
      <trkpt lat="39.812314" lon="-6.324931">
        <ele>429.1</ele>
        <time>2019-05-15T09:27:46Z</time>
      </trkpt>
      <trkpt lat="39.812180" lon="-6.325250">
        <ele>429.0</ele>
        <time>2019-05-15T09:28:14Z</time>
      </trkpt>
      <trkpt lat="39.812101" lon="-6.325420">
        <ele>428.2</ele>
        <time>2019-05-15T09:28:29Z</time>
      </trkpt>
      <trkpt lat="39.812183" lon="-6.325537">
        <ele>429.8</ele>
        <time>2019-05-15T09:28:41Z</time>
      </trkpt>
      <trkpt lat="39.812186" lon="-6.325734">
        <ele>431.0</ele>
        <time>2019-05-15T09:28:56Z</time>
      </trkpt>
      <trkpt lat="39.812278" lon="-6.325885">
        <ele>432.0</ele>
        <time>2019-05-15T09:29:11Z</time>
      </trkpt>
      <trkpt lat="39.812674" lon="-6.326066">
        <ele>434.8</ele>
        <time>2019-05-15T09:29:52Z</time>
      </trkpt>
      <trkpt lat="39.813175" lon="-6.326349">
        <ele>438.0</ele>
        <time>2019-05-15T09:30:47Z</time>
      </trkpt>
      <trkpt lat="39.813517" lon="-6.326539">
        <ele>441.0</ele>
        <time>2019-05-15T09:31:24Z</time>
      </trkpt>
      <trkpt lat="39.814078" lon="-6.326918">
        <ele>445.0</ele>
        <time>2019-05-15T09:32:26Z</time>
      </trkpt>
      <trkpt lat="39.814716" lon="-6.327356">
        <ele>447.0</ele>
        <time>2019-05-15T09:33:38Z</time>
      </trkpt>
      <trkpt lat="39.815038" lon="-6.327516">
        <ele>448.0</ele>
        <time>2019-05-15T09:34:12Z</time>
      </trkpt>
      <trkpt lat="39.815076" lon="-6.327527">
        <ele>448.0</ele>
        <time>2019-05-15T09:34:16Z</time>
      </trkpt>
      <trkpt lat="39.815143" lon="-6.327531">
        <ele>447.9</ele>
        <time>2019-05-15T09:34:23Z</time>
      </trkpt>
    </trkseg>
  </trk>
  <wpt lat="39.815142" lon="-6.327532">
    <ele>447.9</ele>
    <time>2019-05-16T14:49:53Z</time>
    <name>Panel inicio</name>
    <desc></desc>
    <sym></sym>
  </wpt>
  <wpt lat="39.794741" lon="-6.278708">
    <ele>306.0</ele>
    <time>2019-05-16T14:58:01Z</time>
    <name>Panel info</name>
    <desc></desc>
    <sym></sym>
  </wpt>
  <wpt lat="39.794488" lon="-6.279132">
    <ele>305.4</ele>
    <time>2019-05-16T14:58:49Z</time>
    <name>Panel info antiguo</name>
    <desc></desc>
    <sym></sym>
  </wpt>
  <wpt lat="39.794222" lon="-6.276923">
    <ele>283.7</ele>
    <time>2019-07-05T18:24:53Z</time>
    <name>Molinos</name>
    <desc></desc>
    <sym>Waypoint</sym>
  </wpt>
  <wpt lat="39.794285" lon="-6.278984">
    <ele>306.8</ele>
    <time>2019-07-05T18:25:09Z</time>
    <name>Ermita de Tebas</name>
    <desc></desc>
    <sym>Waypoint</sym>
  </wpt>
</gpx>
